sensor_id;sensor_type;location;lat;lon;timestamp;pressure;altitude;pressure_sealevel;temperature;humidity
56414;BME280;42318;48.452;19.526;2023-09-07T00:00:28;99107.03;;;21.40;59.96
56414;BME280;42318;48.452;19.526;2023-09-07T00:05:49;99109.19;;;21.38;60.57
56414;BME280;42318;48.452;19.526;2023-09-07T00:10:49;99101.25;;;21.37;60.25
56414;BME280;42318;48.452;19.526;2023-09-07T00:15:51;99101.25;;;21.37;60.64
56414;BME280;42318;48.452;19.526;2023-09-07T00:20:51;99097.97;;;21.35;60.56
56414;BME280;42318;48.452;19.526;2023-09-07T00:25:52;99097.72;;;21.36;60.66
56414;BME280;42318;48.452;19.526;2023-09-07T00:30:53;99103.66;;;21.33;60.68
56414;BME280;42318;48.452;19.526;2023-09-07T00:35:54;99107.22;;;21.34;60.16
56414;BME280;42318;48.452;19.526;2023-09-07T00:40:55;99104.75;;;21.32;60.68
56414;BME280;42318;48.452;19.526;2023-09-07T00:45:56;99103.09;;;21.31;60.45
56414;BME280;42318;48.452;19.526;2023-09-07T00:50:57;99090.53;;;21.30;60.86
56414;BME280;42318;48.452;19.526;2023-09-07T00:55:58;99091.03;;;21.27;60.55
56414;BME280;42318;48.452;19.526;2023-09-07T01:00:59;99090.53;;;21.30;60.74
56414;BME280;42318;48.452;19.526;2023-09-07T01:06:07;99085.59;;;21.27;60.69
56414;BME280;42318;48.452;19.526;2023-09-07T01:11:15;99085.34;;;21.28;60.32
56414;BME280;42318;48.452;19.526;2023-09-07T01:16:16;99083.31;;;21.24;60.97
56414;BME280;42318;48.452;19.526;2023-09-07T01:21:17;99081.22;;;21.26;60.78
56414;BME280;42318;48.452;19.526;2023-09-07T01:26:19;99079.56;;;21.25;60.84
56414;BME280;42318;48.452;19.526;2023-09-07T01:31:20;99069.91;;;21.22;60.95
56414;BME280;42318;48.452;19.526;2023-09-07T01:36:21;99070.78;;;21.23;60.55
56414;BME280;42318;48.452;19.526;2023-09-07T01:41:21;99069.34;;;21.20;60.61
56414;BME280;42318;48.452;19.526;2023-09-07T01:46:22;99067.69;;;21.19;60.79
56414;BME280;42318;48.452;19.526;2023-09-07T01:51:23;99070.16;;;21.21;60.87
56414;BME280;42318;48.452;19.526;2023-09-07T01:56:28;99075.06;;;21.19;61.22
56414;BME280;42318;48.452;19.526;2023-09-07T02:01:31;99081.31;;;21.19;60.98
56414;BME280;42318;48.452;19.526;2023-09-07T02:06:32;99076.13;;;21.18;60.45
56414;BME280;42318;48.452;19.526;2023-09-07T02:11:33;99074.47;;;21.17;60.75
56414;BME280;42318;48.452;19.526;2023-09-07T02:16:34;99072.25;;;21.14;60.95
56414;BME280;42318;48.452;19.526;2023-09-07T02:21:35;99075.78;;;21.14;60.65
56414;BME280;42318;48.452;19.526;2023-09-07T02:26:36;99078.44;;;21.09;61.02
56414;BME280;42318;48.452;19.526;2023-09-07T02:31:40;99076.28;;;21.11;61.41
56414;BME280;42318;48.452;19.526;2023-09-07T02:36:41;99079.59;;;21.13;61.43
56414;BME280;42318;48.452;19.526;2023-09-07T02:41:42;99071.66;;;21.12;61.42
56414;BME280;42318;48.452;19.526;2023-09-07T02:46:42;99089.59;;;21.08;61.38
56414;BME280;42318;48.452;19.526;2023-09-07T02:51:43;99087.13;;;21.06;61.34
56414;BME280;42318;48.452;19.526;2023-09-07T02:56:45;99098.25;;;21.05;61.79
56414;BME280;42318;48.452;19.526;2023-09-07T03:01:46;99096.03;;;21.01;61.61
56414;BME280;42318;48.452;19.526;2023-09-07T03:06:46;99090.84;;;21.00;61.85
56414;BME280;42318;48.452;19.526;2023-09-07T03:11:47;99091.09;;;20.98;61.65
56414;BME280;42318;48.452;19.526;2023-09-07T03:16:48;99096.78;;;20.97;61.85
56414;BME280;42318;48.452;19.526;2023-09-07T03:21:52;99096.19;;;20.95;62.02
56414;BME280;42318;48.452;19.526;2023-09-07T03:26:53;99087.69;;;20.91;62.16
56414;BME280;42318;48.452;19.526;2023-09-07T03:31:53;99105.13;;;20.90;61.86
56414;BME280;42318;48.452;19.526;2023-09-07T03:36:54;99107.84;;;20.90;62.21
56414;BME280;42318;48.452;19.526;2023-09-07T03:41:55;99108.34;;;20.87;61.89
56414;BME280;42318;48.452;19.526;2023-09-07T03:46:56;99113.78;;;20.87;62.07
56414;BME280;42318;48.452;19.526;2023-09-07T03:51:56;99111.31;;;20.86;62.42
56414;BME280;42318;48.452;19.526;2023-09-07T03:56:57;99114.28;;;20.84;62.19
56414;BME280;42318;48.452;19.526;2023-09-07T04:01:58;99110.97;;;20.82;62.19
56414;BME280;42318;48.452;19.526;2023-09-07T04:06:59;99120.22;;;20.81;62.29
56414;BME280;42318;48.452;19.526;2023-09-07T04:11:59;99118.53;;;20.80;62.04
56414;BME280;42318;48.452;19.526;2023-09-07T04:17:01;99123.97;;;20.80;62.04
56414;BME280;42318;48.452;19.526;2023-09-07T04:22:02;99113.09;;;20.80;62.21
56414;BME280;42318;48.452;19.526;2023-09-07T04:27:03;99127.78;;;20.79;62.32
56414;BME280;42318;48.452;19.526;2023-09-07T04:32:04;99119.84;;;20.78;62.09
56414;BME280;42318;48.452;19.526;2023-09-07T04:37:05;99124.47;;;20.77;62.23
56414;BME280;42318;48.452;19.526;2023-09-07T04:42:06;99120.09;;;20.76;62.29
56414;BME280;42318;48.452;19.526;2023-09-07T04:47:06;99122.81;;;20.76;62.11
56414;BME280;42318;48.452;19.526;2023-09-07T04:52:07;99117.38;;;20.76;62.13
56414;BME280;42318;48.452;19.526;2023-09-07T04:57:09;99119.53;;;20.74;62.26
56414;BME280;42318;48.452;19.526;2023-09-07T05:02:10;99121.41;;;20.74;62.05
56414;BME280;42318;48.452;19.526;2023-09-07T05:07:12;99116.78;;;20.74;62.36
56414;BME280;42318;48.452;19.526;2023-09-07T05:12:13;99128.84;;;20.78;62.33
56414;BME280;42318;48.452;19.526;2023-09-07T05:17:14;99126.94;;;20.79;62.29
56414;BME280;42318;48.452;19.526;2023-09-07T05:22:15;99128.38;;;20.81;62.01
56414;BME280;42318;48.452;19.526;2023-09-07T05:27:17;99126.72;;;20.80;61.93
56414;BME280;42318;48.452;19.526;2023-09-07T05:32:18;99136.56;;;20.81;61.87
56414;BME280;42318;48.452;19.526;2023-09-07T05:37:19;99140.09;;;20.82;62.19
56414;BME280;42318;48.452;19.526;2023-09-07T05:42:20;99139.88;;;20.83;61.94
56414;BME280;42318;48.452;19.526;2023-09-07T05:47:20;99146.97;;;20.84;61.78
56414;BME280;42318;48.452;19.526;2023-09-07T05:52:21;99145.88;;;20.85;61.95
56414;BME280;42318;48.452;19.526;2023-09-07T05:57:22;99138.31;;;20.87;61.79
56414;BME280;42318;48.452;19.526;2023-09-07T06:02:23;99146.47;;;20.87;62.08
56414;BME280;42318;48.452;19.526;2023-09-07T06:07:23;99148.13;;;20.88;61.65
56414;BME280;42318;48.452;19.526;2023-09-07T06:12:24;99150.84;;;20.88;61.53
56414;BME280;42318;48.452;19.526;2023-09-07T06:17:25;99153.66;;;20.93;61.87
56414;BME280;42318;48.452;19.526;2023-09-07T06:22:26;99158.03;;;20.94;61.38
56414;BME280;42318;48.452;19.526;2023-09-07T06:27:27;99161.34;;;20.96;61.49
56414;BME280;42318;48.452;19.526;2023-09-07T06:32:28;99172.00;;;20.98;61.49
56414;BME280;42318;48.452;19.526;2023-09-07T06:37:28;99160.84;;;20.99;61.34
56414;BME280;42318;48.452;19.526;2023-09-07T06:42:29;99171.50;;;21.01;61.69
56414;BME280;42318;48.452;19.526;2023-09-07T06:47:31;99170.19;;;21.04;61.45
56414;BME280;42318;48.452;19.526;2023-09-07T06:52:32;99172.66;;;21.05;61.13
56414;BME280;42318;48.452;19.526;2023-09-07T06:57:32;99169.69;;;21.07;61.01
56414;BME280;42318;48.452;19.526;2023-09-07T07:02:36;99181.16;;;21.09;61.27
56414;BME280;42318;48.452;19.526;2023-09-07T07:07:38;99177.38;;;21.10;61.25
56414;BME280;42318;48.452;19.526;2023-09-07T07:12:40;99177.38;;;21.10;60.92
56414;BME280;42318;48.452;19.526;2023-09-07T07:17:40;99180.16;;;21.15;60.56
56414;BME280;42318;48.452;19.526;2023-09-07T07:22:41;99181.81;;;21.16;60.83
56414;BME280;42318;48.452;19.526;2023-09-07T07:27:42;99187.84;;;21.18;60.91
56414;BME280;42318;48.452;19.526;2023-09-07T07:32:43;99183.22;;;21.18;60.83
56414;BME280;42318;48.452;19.526;2023-09-07T07:37:44;99182.72;;;21.21;60.94
56414;BME280;42318;48.452;19.526;2023-09-07T07:42:46;99187.97;;;21.23;60.80
56414;BME280;42318;48.452;19.526;2023-09-07T07:47:51;99186.06;;;21.23;60.61
56414;BME280;42318;48.452;19.526;2023-09-07T07:52:52;99180.41;;;21.25;60.57
56414;BME280;42318;48.452;19.526;2023-09-07T07:57:53;99176.34;;;21.27;60.66
56414;BME280;42318;48.452;19.526;2023-09-07T08:02:54;99183.22;;;21.30;60.46
56414;BME280;42318;48.452;19.526;2023-09-07T08:07:56;99189.25;;;21.32;60.53
56414;BME280;42318;48.452;19.526;2023-09-07T08:12:56;99188.16;;;21.33;60.86
56414;BME280;42318;48.452;19.526;2023-09-07T08:17:57;99188.75;;;21.35;60.40
56414;BME280;42318;48.452;19.526;2023-09-07T08:22:58;99186.59;;;21.37;60.65
56414;BME280;42318;48.452;19.526;2023-09-07T08:27:59;99194.28;;;21.40;60.56
56414;BME280;42318;48.452;19.526;2023-09-07T08:33:00;99182.28;;;21.41;59.91
56414;BME280;42318;48.452;19.526;2023-09-07T08:38:03;99190.56;;;21.46;59.58
56414;BME280;42318;48.452;19.526;2023-09-07T08:43:09;99191.13;;;21.48;59.05
56414;BME280;42318;48.452;19.526;2023-09-07T08:48:13;99190.63;;;21.51;58.31
56414;BME280;42318;48.452;19.526;2023-09-07T08:53:14;99182.94;;;21.48;57.84
56414;BME280;42318;48.452;19.526;2023-09-07T08:58:14;99190.97;;;21.55;57.47
56414;BME280;42318;48.452;19.526;2023-09-07T09:03:15;99181.13;;;21.54;57.25
56414;BME280;42318;48.452;19.526;2023-09-07T09:08:16;99184.75;;;21.59;57.40
56414;BME280;42318;48.452;19.526;2023-09-07T09:13:27;99172.69;;;21.55;57.53
56414;BME280;42318;48.452;19.526;2023-09-07T09:18:29;99178.28;;;21.66;56.96
56414;BME280;42318;48.452;19.526;2023-09-07T09:23:32;99179.72;;;21.68;57.29
56414;BME280;42318;48.452;19.526;2023-09-07T09:28:34;99170.22;;;21.71;57.45
56414;BME280;42318;48.452;19.526;2023-09-07T09:33:35;99167.00;;;21.74;56.72
56414;BME280;42318;48.452;19.526;2023-09-07T09:38:36;99166.16;;;21.73;56.46
56414;BME280;42318;48.452;19.526;2023-09-07T09:43:37;99168.97;;;21.78;56.29
56414;BME280;42318;48.452;19.526;2023-09-07T09:48:38;99164.91;;;21.81;56.26
56414;BME280;42318;48.452;19.526;2023-09-07T09:53:42;99160.84;;;21.83;56.01
56414;BME280;42318;48.452;19.526;2023-09-07T09:58:43;99147.78;;;21.85;56.16
56414;BME280;42318;48.452;19.526;2023-09-07T10:03:46;99157.38;;;21.88;56.00
56414;BME280;42318;48.452;19.526;2023-09-07T10:09:06;99145.38;;;21.89;55.67
56414;BME280;42318;48.452;19.526;2023-09-07T10:14:08;99153.06;;;21.92;56.21
56414;BME280;42318;48.452;19.526;2023-09-07T10:24:32;99143.84;;;21.98;55.99
56414;BME280;42318;48.452;19.526;2023-09-07T10:30:01;99146.91;;;22.02;56.11
56414;BME280;42318;48.452;19.526;2023-09-07T10:35:16;99140.16;;;22.04;56.29
56414;BME280;42318;48.452;19.526;2023-09-07T10:40:22;99135.25;;;22.06;56.64
56414;BME280;42318;48.452;19.526;2023-09-07T10:45:23;99124.59;;;22.05;56.50
56414;BME280;42318;48.452;19.526;2023-09-07T10:50:24;99120.03;;;22.10;56.67
56414;BME280;42318;48.452;19.526;2023-09-07T10:55:25;99109.72;;;22.12;56.66
56414;BME280;42318;48.452;19.526;2023-09-07T11:00:26;99114.66;;;22.15;56.58
56414;BME280;42318;48.452;19.526;2023-09-07T11:05:27;99103.47;;;22.17;56.10
56414;BME280;42318;48.452;19.526;2023-09-07T11:10:27;99107.59;;;22.19;55.80
56414;BME280;42318;48.452;19.526;2023-09-07T11:15:30;99102.72;;;22.21;55.50
56414;BME280;42318;48.452;19.526;2023-09-07T11:20:31;99095.09;;;22.23;55.95
56414;BME280;42318;48.452;19.526;2023-09-07T11:25:38;99103.84;;;22.25;56.03
56414;BME280;42318;48.452;19.526;2023-09-07T11:30:53;99096.22;;;22.28;56.08
56414;BME280;42318;48.452;19.526;2023-09-07T11:35:54;99097.31;;;22.27;55.37
56414;BME280;42318;48.452;19.526;2023-09-07T11:40:56;99091.91;;;22.32;55.45
56414;BME280;42318;48.452;19.526;2023-09-07T11:45:56;99087.53;;;22.31;55.16
56414;BME280;42318;48.452;19.526;2023-09-07T11:50:57;99096.03;;;22.34;55.13
56414;BME280;42318;48.452;19.526;2023-09-07T11:55:59;99090.31;;;22.36;55.06
56414;BME280;42318;48.452;19.526;2023-09-07T12:01:00;99094.44;;;22.38;54.93
56414;BME280;42318;48.452;19.526;2023-09-07T12:06:01;99097.97;;;22.39;54.61
56414;BME280;42318;48.452;19.526;2023-09-07T12:11:02;99089.28;;;22.42;54.40
56414;BME280;42318;48.452;19.526;2023-09-07T12:16:03;99085.47;;;22.43;54.06
56414;BME280;42318;48.452;19.526;2023-09-07T12:21:04;99089.28;;;22.42;53.38
56414;BME280;42318;48.452;19.526;2023-09-07T12:26:04;99078.91;;;22.44;53.26
56414;BME280;42318;48.452;19.526;2023-09-07T12:31:06;99080.56;;;22.45;53.17
56414;BME280;42318;48.452;19.526;2023-09-07T12:36:06;99076.75;;;22.46;52.82
56414;BME280;42318;48.452;19.526;2023-09-07T12:41:10;99075.94;;;22.45;52.34
56414;BME280;42318;48.452;19.526;2023-09-07T12:46:11;99074.84;;;22.46;51.76
56414;BME280;42318;48.452;19.526;2023-09-07T12:51:12;99068.00;;;22.44;51.52
56414;BME280;42318;48.452;19.526;2023-09-07T12:56:13;99070.22;;;22.47;51.15
56414;BME280;42318;48.452;19.526;2023-09-07T13:01:16;99060.94;;;22.48;50.89
56414;BME280;42318;48.452;19.526;2023-09-07T13:06:17;99055.47;;;22.48;50.83
56414;BME280;42318;48.452;19.526;2023-09-07T13:11:18;99059.84;;;22.49;51.01
56414;BME280;42318;48.452;19.526;2023-09-07T13:16:19;99054.09;;;22.45;51.39
56414;BME280;42318;48.452;19.526;2023-09-07T13:21:19;99060.69;;;22.49;51.14
56414;BME280;42318;48.452;19.526;2023-09-07T13:26:20;99047.84;;;22.50;51.68
56414;BME280;42318;48.452;19.526;2023-09-07T13:31:21;99045.94;;;22.50;51.27
56414;BME280;42318;48.452;19.526;2023-09-07T13:36:22;99053.88;;;22.52;50.99
56414;BME280;42318;48.452;19.526;2023-09-07T13:41:23;99051.41;;;22.50;50.58
56414;BME280;42318;48.452;19.526;2023-09-07T13:46:24;99049.81;;;22.54;50.77
56414;BME280;42318;48.452;19.526;2023-09-07T13:51:24;99039.41;;;22.51;50.70
56414;BME280;42318;48.452;19.526;2023-09-07T14:27:46;99017.63;;;22.56;50.63
56414;BME280;42318;48.452;19.526;2023-09-07T14:32:47;99018.44;;;22.57;50.34
56414;BME280;42318;48.452;19.526;2023-09-07T14:37:49;99011.34;;;22.56;50.37
56414;BME280;42318;48.452;19.526;2023-09-07T14:42:50;99004.72;;;22.52;50.63
56414;BME280;42318;48.452;19.526;2023-09-07T14:47:51;99010.75;;;22.54;51.04
56414;BME280;42318;48.452;19.526;2023-09-07T14:52:52;99010.75;;;22.54;51.17
56414;BME280;42318;48.452;19.526;2023-09-07T14:57:53;99005.81;;;22.51;51.52
56414;BME280;42318;48.452;19.526;2023-09-07T15:02:54;99020.03;;;22.53;51.20
56414;BME280;42318;48.452;19.526;2023-09-07T15:07:55;99018.38;;;22.52;51.56
56414;BME280;42318;48.452;19.526;2023-09-07T15:12:56;99006.63;;;22.51;51.49
56414;BME280;42318;48.452;19.526;2023-09-07T15:17:56;99019.47;;;22.51;51.03
56414;BME280;42318;48.452;19.526;2023-09-07T15:22:57;99007.44;;;22.52;50.96
56414;BME280;42318;48.452;19.526;2023-09-07T15:27:58;98994.59;;;22.47;50.20
56414;BME280;42318;48.452;19.526;2023-09-07T15:32:59;99001.44;;;22.50;49.45
56414;BME280;42318;48.452;19.526;2023-09-07T15:38:00;98995.97;;;22.50;49.80
56414;BME280;42318;48.452;19.526;2023-09-07T15:43:00;99007.97;;;22.49;49.68
56414;BME280;42318;48.452;19.526;2023-09-07T15:48:02;98998.97;;;22.48;49.33
56414;BME280;42318;48.452;19.526;2023-09-07T15:53:03;99011.78;;;22.48;49.71
56414;BME280;42318;48.452;19.526;2023-09-07T15:58:04;99008.22;;;22.47;49.95
56414;BME280;42318;48.452;19.526;2023-09-07T16:03:05;99011.22;;;22.46;50.44
56414;BME280;42318;48.452;19.526;2023-09-07T16:08:06;99009.56;;;22.45;50.47
56414;BME280;42318;48.452;19.526;2023-09-07T16:13:06;99011.47;;;22.44;50.53
56414;BME280;42318;48.452;19.526;2023-09-07T16:18:07;99010.66;;;22.44;50.75
56414;BME280;42318;48.452;19.526;2023-09-07T16:23:08;99016.38;;;22.42;50.88
56414;BME280;42318;48.452;19.526;2023-09-07T16:28:10;99018.28;;;22.42;51.04
56414;BME280;42318;48.452;19.526;2023-09-07T16:33:11;99023.75;;;22.42;51.18
56414;BME280;42318;48.452;19.526;2023-09-07T16:38:12;99025.59;;;22.36;51.29
56414;BME280;42318;48.452;19.526;2023-09-07T16:43:14;99030.84;;;22.43;51.68
56414;BME280;42318;48.452;19.526;2023-09-07T16:48:15;99035.50;;;22.42;51.86
56414;BME280;42318;48.452;19.526;2023-09-07T16:53:15;99044.50;;;22.43;52.16
56414;BME280;42318;48.452;19.526;2023-09-07T16:58:16;99044.50;;;22.43;52.66
56414;BME280;42318;48.452;19.526;2023-09-07T17:03:17;99047.50;;;22.41;52.77
56414;BME280;42318;48.452;19.526;2023-09-07T17:08:18;99044.50;;;22.43;52.84
56414;BME280;42318;48.452;19.526;2023-09-07T17:13:19;99053.78;;;22.42;52.92
56414;BME280;42318;48.452;19.526;2023-09-07T17:18:20;99051.06;;;22.42;53.32
56414;BME280;42318;48.452;19.526;2023-09-07T17:23:21;99057.28;;;22.37;53.45
56414;BME280;42318;48.452;19.526;2023-09-07T17:28:22;99076.72;;;22.41;53.57
56414;BME280;42318;48.452;19.526;2023-09-07T17:33:23;99076.97;;;22.39;53.76
56414;BME280;42318;48.452;19.526;2023-09-07T17:38:26;99082.69;;;22.38;53.72
56414;BME280;42318;48.452;19.526;2023-09-07T17:43:27;99080.22;;;22.36;53.92
56414;BME280;42318;48.452;19.526;2023-09-07T17:48:27;99091.69;;;22.38;54.16
56414;BME280;42318;48.452;19.526;2023-09-07T17:53:28;99091.13;;;22.36;54.21
56414;BME280;42318;48.452;19.526;2023-09-07T17:58:29;99098.50;;;22.36;53.81
56414;BME280;42318;48.452;19.526;2023-09-07T18:03:30;99097.69;;;22.35;54.10
56414;BME280;42318;48.452;19.526;2023-09-07T18:08:34;99107.78;;;22.35;54.00
56414;BME280;42318;48.452;19.526;2023-09-07T18:13:35;99113.50;;;22.33;54.31
56414;BME280;42318;48.452;19.526;2023-09-07T18:18:36;99112.09;;;22.31;54.42
56414;BME280;42318;48.452;19.526;2023-09-07T18:23:37;99114.25;;;22.29;54.53
56414;BME280;42318;48.452;19.526;2023-09-07T18:28:39;99113.44;;;22.28;54.47
56414;BME280;42318;48.452;19.526;2023-09-07T18:33:39;99115.34;;;22.28;54.57
56414;BME280;42318;48.452;19.526;2023-09-07T18:38:40;99116.41;;;22.27;54.11
56414;BME280;42318;48.452;19.526;2023-09-07T18:43:42;99113.13;;;22.24;54.22
56414;BME280;42318;48.452;19.526;2023-09-07T18:48:43;99120.16;;;22.20;54.29
56414;BME280;42318;48.452;19.526;2023-09-07T18:53:44;99132.16;;;22.19;54.71
56414;BME280;42318;48.452;19.526;2023-09-07T18:58:45;99122.91;;;22.20;54.81
56414;BME280;42318;48.452;19.526;2023-09-07T19:03:51;99126.72;;;22.19;54.62
56414;BME280;42318;48.452;19.526;2023-09-07T19:08:52;99124.75;;;22.15;55.21
56414;BME280;42318;48.452;19.526;2023-09-07T19:13:53;99125.56;;;22.15;55.10
56414;BME280;42318;48.452;19.526;2023-09-07T19:18:54;99128.56;;;22.14;55.44
56414;BME280;42318;48.452;19.526;2023-09-07T19:23:55;99131.28;;;22.14;55.36
56414;BME280;42318;48.452;19.526;2023-09-07T19:28:57;99132.38;;;22.13;55.64
56414;BME280;42318;48.452;19.526;2023-09-07T19:33:58;99123.56;;;22.11;55.98
56414;BME280;42318;48.452;19.526;2023-09-07T19:38:59;99115.66;;;22.09;55.96
56414;BME280;42318;48.452;19.526;2023-09-07T19:44:01;99123.84;;;22.09;55.87
56414;BME280;42318;48.452;19.526;2023-09-07T19:49:02;99117.81;;;22.07;56.33
56414;BME280;42318;48.452;19.526;2023-09-07T19:54:03;99106.78;;;22.02;56.00
56414;BME280;42318;48.452;19.526;2023-09-07T19:59:04;99108.47;;;22.03;56.11
56414;BME280;42318;48.452;19.526;2023-09-07T20:04:11;99115.22;;;22.01;56.53
56414;BME280;42318;48.452;19.526;2023-09-07T20:09:12;99111.69;;;22.00;56.38
56414;BME280;42318;48.452;19.526;2023-09-07T20:14:15;99104.56;;;21.99;56.76
56414;BME280;42318;48.452;19.526;2023-09-07T20:19:16;99102.09;;;21.98;56.69
56414;BME280;42318;48.452;19.526;2023-09-07T20:24:17;99096.34;;;21.94;57.04
56414;BME280;42318;48.452;19.526;2023-09-07T20:29:18;99103.44;;;21.95;57.02
56414;BME280;42318;48.452;19.526;2023-09-07T20:34:19;99097.16;;;21.94;57.30
56414;BME280;42318;48.452;19.526;2023-09-07T20:39:21;99092.78;;;21.93;57.16
56414;BME280;42318;48.452;19.526;2023-09-07T20:44:22;99095.75;;;21.92;57.28
56414;BME280;42318;48.452;19.526;2023-09-07T20:49:22;99092.47;;;21.90;57.23
56414;BME280;42318;48.452;19.526;2023-09-07T20:54:23;99094.38;;;21.89;57.51
56414;BME280;42318;48.452;19.526;2023-09-07T20:59:27;99094.63;;;21.88;57.62
56414;BME280;42318;48.452;19.526;2023-09-07T21:04:28;99092.41;;;21.85;57.36
56414;BME280;42318;48.452;19.526;2023-09-07T21:09:29;99096.53;;;21.87;57.48
56414;BME280;42318;48.452;19.526;2023-09-07T21:14:30;99099.50;;;21.86;57.53
56414;BME280;42318;48.452;19.526;2023-09-07T21:19:31;99105.22;;;21.84;57.58
56414;BME280;42318;48.452;19.526;2023-09-07T21:24:32;99106.28;;;21.83;57.93
56414;BME280;42318;48.452;19.526;2023-09-07T21:29:33;99101.91;;;21.82;57.88
56414;BME280;42318;48.452;19.526;2023-09-07T21:34:34;99103.00;;;21.81;58.03
56414;BME280;42318;48.452;19.526;2023-09-07T21:39:35;99097.78;;;21.80;57.70
56414;BME280;42318;48.452;19.526;2023-09-07T21:44:36;99097.22;;;21.78;57.83
56414;BME280;42318;48.452;19.526;2023-09-07T21:49:37;99095.31;;;21.78;57.83
56414;BME280;42318;48.452;19.526;2023-09-07T21:54:38;99086.25;;;21.73;58.28
56414;BME280;42318;48.452;19.526;2023-09-07T21:59:39;99093.91;;;21.76;57.94
56414;BME280;42318;48.452;19.526;2023-09-07T22:04:39;99088.72;;;21.74;58.21
56414;BME280;42318;48.452;19.526;2023-09-07T22:09:40;99094.44;;;21.73;58.35
56414;BME280;42318;48.452;19.526;2023-09-07T22:14:41;99082.59;;;21.67;58.48
56414;BME280;42318;48.452;19.526;2023-09-07T22:19:42;99083.78;;;21.71;58.64
56414;BME280;42318;48.452;19.526;2023-09-07T22:24:43;99087.31;;;21.72;58.46
56414;BME280;42318;48.452;19.526;2023-09-07T22:29:43;99089.47;;;21.70;58.28
56414;BME280;42318;48.452;19.526;2023-09-07T22:34:44;99085.94;;;21.69;58.71
56414;BME280;42318;48.452;19.526;2023-09-07T22:39:45;99077.66;;;21.64;58.49
56414;BME280;42318;48.452;19.526;2023-09-07T22:44:46;99082.84;;;21.66;58.56
56414;BME280;42318;48.452;19.526;2023-09-07T22:49:48;99084.75;;;21.65;58.63
56414;BME280;42318;48.452;19.526;2023-09-07T22:54:49;99093.19;;;21.63;58.74
56414;BME280;42318;48.452;19.526;2023-09-07T22:59:49;99092.34;;;21.63;58.87
56414;BME280;42318;48.452;19.526;2023-09-07T23:04:55;99098.06;;;21.61;58.61
56414;BME280;42318;48.452;19.526;2023-09-07T23:09:56;99081.72;;;21.61;59.02
56414;BME280;42318;48.452;19.526;2023-09-07T23:14:56;99081.13;;;21.59;58.66
56414;BME280;42318;48.452;19.526;2023-09-07T23:19:59;99078.41;;;21.59;58.97
56414;BME280;42318;48.452;19.526;2023-09-07T23:24:59;99081.13;;;21.59;59.16
56414;BME280;42318;48.452;19.526;2023-09-07T23:30:00;99079.72;;;21.57;59.11
56414;BME280;42318;48.452;19.526;2023-09-07T23:35:02;99076.19;;;21.56;59.29
56414;BME280;42318;48.452;19.526;2023-09-07T23:40:04;99078.34;;;21.54;58.87
56414;BME280;42318;48.452;19.526;2023-09-07T23:45:10;99076.69;;;21.53;58.97
56414;BME280;42318;48.452;19.526;2023-09-07T23:50:10;99076.94;;;21.52;59.12
56414;BME280;42318;48.452;19.526;2023-09-07T23:55:11;99060.75;;;21.45;59.32
